Time;durP1;ratioP1;P1;durP2;ratioP2;P2;SDS_P1;SDS_P2;PMS_P1;PMS_P2;Temp;Humidity;BMP_temperature;BMP_pressure;BME280_temperature;BME280_humidity;BME280_pressure;Samples;Min_cycle;Max_cycle;Signal;HPM_P1;HPM_P2
2023/05/12 00:00:03;;;;;;;7.47;5.70;;;;;;;9.94;80.30;99878.44;5012276;28;20136;-74
2023/05/12 00:02:28;;;;;;;8.38;5.85;;;;;;;9.88;80.44;99885.28;5012387;28;20030;-74
2023/05/12 00:04:54;;;;;;;7.68;5.38;;;;;;;10.00;80.80;99883.88;5020797;28;20030;-74
2023/05/12 00:07:20;;;;;;;9.57;5.32;;;;;;;10.05;80.23;99887.34;5024693;28;20390;-74
2023/05/12 00:09:45;;;;;;;9.45;5.70;;;;;;;9.87;80.24;99880.03;5022545;28;20040;-74
2023/05/12 00:12:11;;;;;;;8.35;4.90;;;;;;;9.80;81.39;99875.72;5030498;28;20029;-74
2023/05/12 00:14:37;;;;;;;10.05;6.68;;;;;;;9.87;81.33;99886.44;5027781;28;20591;-74
2023/05/12 00:17:06;;;;;;;8.63;6.00;;;;;;;9.80;81.45;99883.28;5019312;28;20493;-74
2023/05/12 00:19:33;;;;;;;9.98;6.03;;;;;;;9.86;81.76;99886.78;5017895;28;20052;-74
2023/05/12 00:21:59;;;;;;;7.50;5.43;;;;;;;9.85;81.79;99883.16;5022197;28;20017;-74
2023/05/12 00:24:24;;;;;;;7.53;5.53;;;;;;;9.92;81.19;99883.53;5015479;28;20034;-74
2023/05/12 00:26:50;;;;;;;8.93;5.88;;;;;;;9.93;80.92;99884.34;5023767;28;20195;-74
2023/05/12 00:29:15;;;;;;;13.63;5.85;;;;;;;9.83;81.41;99879.84;5027872;28;20030;-74
2023/05/12 00:31:41;;;;;;;12.27;6.28;;;;;;;9.80;81.44;99881.31;5031203;28;20400;-74
2023/05/12 00:34:06;;;;;;;17.50;6.95;;;;;;;9.78;81.54;99886.41;5028352;28;20048;-74
2023/05/12 00:36:32;;;;;;;13.77;6.97;;;;;;;9.77;82.52;99879.16;5031268;28;20026;-74
2023/05/12 00:38:58;;;;;;;8.40;5.90;;;;;;;9.74;82.07;99878.97;5016027;28;20032;-74
2023/05/12 00:41:23;;;;;;;9.77;6.70;;;;;;;9.65;83.20;99890.94;5030794;28;20515;-74
2023/05/12 00:43:49;;;;;;;9.50;6.15;;;;;;;9.60;83.25;99902.22;5022860;28;20124;-74
2023/05/12 00:46:16;;;;;;;8.80;5.93;;;;;;;9.64;83.46;99894.84;5030160;28;20105;-74
2023/05/12 00:48:43;;;;;;;8.52;5.68;;;;;;;9.65;83.05;99896.53;5025311;28;20066;-74
2023/05/12 00:51:08;;;;;;;8.38;5.65;;;;;;;9.70;83.69;99889.94;5028635;28;20124;-74
2023/05/12 00:53:34;;;;;;;10.10;6.65;;;;;;;9.62;83.41;99894.34;5017517;28;20025;-74
2023/05/12 00:56:00;;;;;;;11.32;6.15;;;;;;;9.62;83.68;99899.13;5030283;28;20039;-74
2023/05/12 00:58:25;;;;;;;10.95;6.15;;;;;;;9.49;84.39;99896.09;5028370;28;20488;-74
2023/05/12 01:00:51;;;;;;;12.32;6.93;;;;;;;9.43;84.90;99902.91;5011049;28;20029;-74
2023/05/12 01:03:17;;;;;;;12.70;7.75;;;;;;;9.41;85.10;99896.84;5011715;28;20080;-74
2023/05/12 01:05:49;;;;;;;13.48;6.70;;;;;;;9.36;85.16;99891.38;5023074;28;20029;-74
2023/05/12 01:08:16;;;;;;;9.50;6.43;;;;;;;9.50;85.17;99905.25;5018672;28;20045;-74
2023/05/12 01:10:45;;;;;;;12.23;6.38;;;;;;;9.49;84.73;99904.47;5026322;28;20025;-74
2023/05/12 01:13:11;;;;;;;10.32;6.65;;;;;;;9.44;85.54;99901.78;5011370;28;20026;-74
2023/05/12 01:15:41;;;;;;;8.55;6.28;;;;;;;9.41;85.43;99906.03;5011045;28;20109;-74
2023/05/12 01:18:10;;;;;;;7.28;5.88;;;;;;;9.43;85.62;99907.69;5013859;28;20420;-74
2023/05/12 01:20:37;;;;;;;7.70;5.87;;;;;;;9.37;85.88;99895.81;5019793;28;20037;-74
2023/05/12 01:23:04;;;;;;;8.57;6.05;;;;;;;9.35;86.20;99890.53;5025768;28;20594;-74
2023/05/12 01:25:32;;;;;;;15.95;6.43;;;;;;;9.36;85.70;99883.81;5017918;28;20133;-74
2023/05/12 01:27:58;;;;;;;10.75;6.55;;;;;;;9.42;85.83;99887.31;5021676;28;20690;-74
2023/05/12 01:30:25;;;;;;;6.28;5.07;;;;;;;9.45;85.96;99891.44;5028467;28;20155;-74
2023/05/12 01:32:51;;;;;;;11.48;5.68;;;;;;;9.48;85.77;99890.81;5011126;28;20101;-74
2023/05/12 01:35:16;;;;;;;8.38;5.88;;;;;;;9.33;86.35;99878.03;5015858;28;20464;-75
2023/05/12 01:37:42;;;;;;;11.85;5.78;;;;;;;9.35;86.89;99879.38;5019912;28;20026;-74
2023/05/12 01:40:08;;;;;;;9.77;5.25;;;;;;;9.25;87.14;99882.41;5016912;28;20125;-74
2023/05/12 01:42:33;;;;;;;7.07;5.97;;;;;;;9.29;86.70;99882.63;5029619;28;20021;-74
2023/05/12 01:44:59;;;;;;;8.73;6.70;;;;;;;9.26;87.12;99890.47;5024689;28;20021;-74
2023/05/12 01:47:24;;;;;;;11.30;6.53;;;;;;;9.23;87.56;99879.97;5029995;28;20525;-74
2023/05/12 01:49:50;;;;;;;9.05;5.47;;;;;;;9.22;87.78;99880.25;5014814;28;20034;-74
2023/05/12 01:52:16;;;;;;;6.22;5.35;;;;;;;9.28;86.94;99890.16;5025940;28;20034;-74
2023/05/12 01:54:41;;;;;;;11.20;6.50;;;;;;;9.27;87.51;99885.72;5028391;28;20108;-74
2023/05/12 01:57:07;;;;;;;11.23;5.53;;;;;;;9.40;86.70;99884.81;5021657;28;20030;-74
2023/05/12 01:59:32;;;;;;;7.60;5.43;;;;;;;9.24;87.08;99872.41;5028968;28;20025;-74
2023/05/12 02:01:57;;;;;;;8.93;5.93;;;;;;;9.32;87.05;99881.97;5013165;28;20160;-74
2023/05/12 02:04:23;;;;;;;12.15;6.55;;;;;;;9.21;87.48;99876.63;5011246;28;20400;-74
2023/05/12 02:06:48;;;;;;;9.05;6.65;;;;;;;9.37;86.19;99879.88;5024755;28;20079;-74
2023/05/12 02:09:14;;;;;;;6.95;5.72;;;;;;;9.41;85.67;99875.34;5024080;28;20514;-74
2023/05/12 02:11:39;;;;;;;7.10;5.20;;;;;;;9.43;85.03;99882.56;5016973;28;20400;-74
2023/05/12 02:14:05;;;;;;;10.70;6.97;;;;;;;9.30;85.86;99867.50;5018927;28;20132;-74
2023/05/12 02:16:30;;;;;;;6.72;5.57;;;;;;;9.32;86.22;99871.66;5027853;28;20408;-74
2023/05/12 02:18:56;;;;;;;8.70;6.30;;;;;;;9.31;85.73;99877.53;5014950;28;20717;-74
2023/05/12 02:21:21;;;;;;;10.82;6.57;;;;;;;9.33;86.38;99883.63;5012983;28;20087;-74
2023/05/12 02:23:47;;;;;;;9.40;6.25;;;;;;;9.47;84.51;99875.19;5030142;28;20471;-74
2023/05/12 02:26:12;;;;;;;6.57;5.15;;;;;;;9.36;85.29;99869.84;5020642;28;20022;-74
2023/05/12 02:28:38;;;;;;;10.32;6.40;;;;;;;9.48;84.38;99879.63;5028413;28;20565;-74
2023/05/12 02:31:03;;;;;;;11.18;6.22;;;;;;;9.47;84.62;99867.66;5031561;28;20030;-74
2023/05/12 02:33:29;;;;;;;7.90;4.55;;;;;;;9.49;84.29;99872.91;5026345;28;20030;-74
2023/05/12 02:35:55;;;;;;;11.13;6.10;;;;;;;9.51;84.50;99876.19;5032061;28;20029;-74
2023/05/12 02:38:20;;;;;;;7.55;5.75;;;;;;;9.45;84.40;99881.09;5021295;28;20053;-74
2023/05/12 02:40:46;;;;;;;11.35;6.18;;;;;;;9.55;84.23;99880.03;5029251;28;20108;-74
2023/05/12 02:43:12;;;;;;;11.90;5.90;;;;;;;9.55;84.06;99885.59;5014682;28;20096;-74
2023/05/12 02:45:38;;;;;;;10.13;5.88;;;;;;;9.71;82.75;99877.63;5017033;28;20021;-74
2023/05/12 02:48:03;;;;;;;17.73;5.65;;;;;;;9.68;82.58;99889.44;5030958;28;20103;-74
2023/05/12 02:50:29;;;;;;;13.65;5.10;;;;;;;9.63;83.04;99886.81;5025002;28;20037;-74
2023/05/12 02:52:54;;;;;;;10.20;6.15;;;;;;;9.57;81.90;99888.06;5036295;28;20527;-74
2023/05/12 02:55:20;;;;;;;10.75;5.47;;;;;;;9.51;83.35;99895.75;5020791;28;20040;-74
2023/05/12 02:57:45;;;;;;;9.07;6.03;;;;;;;9.55;82.88;99902.38;5028269;28;20017;-74
2023/05/12 03:00:11;;;;;;;6.07;5.00;;;;;;;9.46;83.17;99901.47;5023500;28;20048;-74
2023/05/12 03:02:37;;;;;;;8.23;5.63;;;;;;;9.67;82.43;99904.56;5029403;28;20052;-74
2023/05/12 03:05:05;;;;;;;7.88;5.00;;;;;;;9.51;83.26;99906.91;5017488;28;20475;-74
2023/05/12 03:07:30;;;;;;;13.35;6.47;;;;;;;9.55;83.26;99905.16;5026511;28;20069;-74
2023/05/12 03:09:57;;;;;;;7.72;5.32;;;;;;;9.48;83.42;99908.41;5014448;28;20050;-74
2023/05/12 03:12:22;;;;;;;11.27;6.35;;;;;;;9.45;84.25;99908.19;5013610;28;20040;-74
2023/05/12 03:14:48;;;;;;;10.45;6.13;;;;;;;9.53;83.61;99910.22;5014636;28;20041;-74
2023/05/12 03:17:13;;;;;;;7.50;5.95;;;;;;;9.55;83.73;99907.94;5032823;28;20099;-74
2023/05/12 03:19:38;;;;;;;10.13;5.47;;;;;;;9.54;84.29;99909.91;5030925;28;20397;-74
2023/05/12 03:22:06;;;;;;;18.35;6.07;;;;;;;9.57;84.09;99916.81;5029170;28;20087;-74
2023/05/12 03:24:32;;;;;;;13.30;6.53;;;;;;;9.57;84.49;99916.00;5013598;28;20049;-74
2023/05/12 03:26:58;;;;;;;9.05;5.95;;;;;;;9.44;85.14;99912.13;5013417;28;20116;-74
2023/05/12 03:29:24;;;;;;;10.52;6.13;;;;;;;9.57;85.62;99922.41;5016600;28;20160;-74
2023/05/12 03:31:49;;;;;;;9.27;5.53;;;;;;;9.76;84.32;99918.59;5012764;28;20470;-74
2023/05/12 03:34:15;;;;;;;9.00;5.28;;;;;;;9.80;84.82;99920.44;5016761;28;20104;-74
2023/05/12 03:36:40;;;;;;;8.60;5.88;;;;;;;9.72;84.70;99917.59;5015878;28;20497;-74
2023/05/12 03:39:08;;;;;;;9.27;5.80;;;;;;;9.64;85.02;99928.38;5027191;28;20029;-74
2023/05/12 03:41:36;;;;;;;13.10;6.75;;;;;;;9.58;85.96;99926.84;5032508;28;20055;-74
2023/05/12 03:44:02;;;;;;;12.77;6.50;;;;;;;9.70;85.40;99926.25;5028127;28;20036;-74
2023/05/12 03:46:27;;;;;;;10.40;6.45;;;;;;;9.59;85.40;99927.66;5019580;28;20054;-74
2023/05/12 03:48:53;;;;;;;10.32;6.80;;;;;;;9.51;86.65;99932.03;5012583;28;20037;-74
2023/05/12 03:51:18;;;;;;;21.35;7.15;;;;;;;9.53;87.53;99938.13;5022262;28;20525;-74
2023/05/12 03:53:46;;;;;;;12.23;6.53;;;;;;;9.68;86.21;99937.78;5023959;28;20496;-74
2023/05/12 03:56:11;;;;;;;8.40;5.68;;;;;;;9.65;86.93;99941.22;5026039;28;20464;-74
2023/05/12 03:58:37;;;;;;;13.73;7.45;;;;;;;9.57;87.10;99936.38;5021478;28;20072;-74
2023/05/12 04:01:02;;;;;;;7.85;6.53;;;;;;;9.59;86.95;99936.88;5019809;28;20048;-74
2023/05/12 04:03:28;;;;;;;13.38;6.78;;;;;;;9.58;87.17;99938.03;5028421;28;20036;-75
2023/05/12 04:06:01;;;;;;;10.13;6.82;;;;;;;9.77;86.71;99937.84;5019011;28;20026;-75
2023/05/12 04:08:27;;;;;;;12.60;6.70;;;;;;;9.93;86.42;99943.00;5012304;28;20100;-74
2023/05/12 04:10:58;;;;;;;13.38;7.45;;;;;;;9.79;85.62;99943.13;5043493;28;20083;-75
2023/05/12 04:13:23;;;;;;;;;;;;;;;9.87;86.28;99947.91;5029471;28;20052;-75
2023/05/12 04:15:49;;;;;;;8.98;6.72;;;;;;;9.81;86.48;99943.63;5015013;28;20311;-76
2023/05/12 04:18:15;;;;;;;9.30;6.78;;;;;;;9.80;86.57;99948.38;5025058;28;20095;-76
2023/05/12 04:20:41;;;;;;;7.70;6.45;;;;;;;9.77;86.51;99942.56;5021402;28;20033;-75
2023/05/12 04:23:06;;;;;;;14.93;8.63;;;;;;;9.79;86.15;99929.94;5029301;28;20064;-75
2023/05/12 04:25:32;;;;;;;24.00;8.40;;;;;;;9.92;85.65;99944.16;5020990;28;20105;-76
2023/05/12 04:27:58;;;;;;;13.43;7.35;;;;;;;9.93;85.45;99943.84;5022314;28;20029;-75
2023/05/12 04:30:23;;;;;;;13.38;7.53;;;;;;;9.87;85.93;99947.91;5025113;28;20071;-75
2023/05/12 04:32:49;;;;;;;15.52;7.20;;;;;;;9.90;86.22;99947.31;5027026;28;20029;-76
2023/05/12 04:35:14;;;;;;;17.65;9.15;;;;;;;9.96;86.29;99948.78;5024592;28;20029;-75
2023/05/12 04:37:40;;;;;;;13.80;7.93;;;;;;;10.04;86.08;99949.19;5018449;28;20184;-75
2023/05/12 04:40:07;;;;;;;13.88;9.05;;;;;;;10.16;85.48;99943.00;5021138;28;20112;-75
2023/05/12 04:42:33;;;;;;;13.80;9.23;;;;;;;10.18;85.20;99940.69;5015996;28;20044;-76
2023/05/12 04:44:59;;;;;;;12.73;9.13;;;;;;;10.25;84.54;99938.28;5012598;28;20030;-75
2023/05/12 04:47:24;;;;;;;13.05;9.38;;;;;;;10.34;83.56;99936.34;5013803;28;20414;-75
2023/05/12 04:49:50;;;;;;;14.82;9.23;;;;;;;10.26;83.90;99928.75;5021502;28;20064;-76
2023/05/12 04:52:15;;;;;;;15.07;9.32;;;;;;;10.27;83.54;99927.59;5015999;28;20034;-76
2023/05/12 04:54:41;;;;;;;17.83;9.27;;;;;;;10.33;84.39;99939.47;5022364;28;20029;-74
2023/05/12 04:57:07;;;;;;;13.52;9.75;;;;;;;10.40;83.36;99934.25;5021221;28;20033;-75
2023/05/12 04:59:32;;;;;;;15.40;9.70;;;;;;;10.40;82.50;99951.81;5027240;28;20491;-76
2023/05/12 05:01:58;;;;;;;12.15;9.40;;;;;;;10.43;83.19;99942.00;5021407;28;20504;-76
2023/05/12 05:04:23;;;;;;;22.50;11.00;;;;;;;10.43;82.78;99947.59;5008795;28;20029;-76
2023/05/12 05:06:49;;;;;;;22.75;11.75;;;;;;;10.53;82.04;99952.91;5021036;28;20077;-76
2023/05/12 05:09:14;;;;;;;20.50;11.43;;;;;;;10.60;81.62;99952.44;5027471;28;20041;-76
2023/05/12 05:11:40;;;;;;;18.80;11.13;;;;;;;10.70;81.23;99944.91;5026810;28;20029;-76
2023/05/12 05:14:05;;;;;;;18.75;10.07;;;;;;;10.75;81.15;99947.53;5026289;28;20186;-76
2023/05/12 05:16:31;;;;;;;17.02;10.65;;;;;;;10.75;80.65;99947.53;5008982;28;20048;-76
2023/05/12 05:18:56;;;;;;;20.92;9.90;;;;;;;10.69;80.77;99938.47;5018651;28;20041;-74
2023/05/12 05:21:22;;;;;;;27.58;11.20;;;;;;;10.64;81.83;99947.03;5007448;28;20029;-74
2023/05/12 05:23:47;;;;;;;16.73;10.88;;;;;;;10.69;81.16;99941.28;5008348;28;20033;-75
2023/05/12 05:26:13;;;;;;;23.35;11.43;;;;;;;10.79;81.33;99943.78;5021954;28;20099;-75
2023/05/12 05:28:38;;;;;;;11.93;9.82;;;;;;;10.89;81.11;99942.63;5028355;28;20049;-74
2023/05/12 05:31:05;;;;;;;14.52;10.43;;;;;;;10.88;80.90;99941.00;5011047;28;20029;-73
2023/05/12 05:33:31;;;;;;;20.52;10.48;;;;;;;10.87;81.40;99942.16;5012237;28;20075;-73
2023/05/12 05:35:56;;;;;;;16.90;12.23;;;;;;;11.00;80.19;99947.94;5013587;28;20057;-73
2023/05/12 05:38:22;;;;;;;13.77;9.85;;;;;;;11.08;79.38;99961.94;5021864;28;20045;-73
2023/05/12 05:40:47;;;;;;;17.30;13.60;;;;;;;11.17;79.86;99961.13;5013546;28;20025;-73
2023/05/12 05:43:13;;;;;;;25.98;12.65;;;;;;;11.18;78.77;99959.97;5020163;28;20041;-72
2023/05/12 05:45:38;;;;;;;20.30;12.20;;;;;;;11.20;78.67;99954.88;5013199;28;20021;-75
2023/05/12 05:48:04;;;;;;;20.30;11.98;;;;;;;11.23;77.76;99949.44;5019856;28;20045;-73
2023/05/12 05:50:30;;;;;;;16.75;10.85;;;;;;;11.22;77.64;99958.16;5028498;28;20025;-73
2023/05/12 05:52:55;;;;;;;15.65;10.30;;;;;;;11.31;78.75;99970.22;5016415;28;20037;-73
2023/05/12 05:55:21;;;;;;;21.77;11.48;;;;;;;11.32;78.96;99976.66;5015592;28;20034;-73
2023/05/12 05:57:46;;;;;;;16.48;10.60;;;;;;;11.35;78.56;99968.41;5024505;28;20048;-74
2023/05/12 06:00:13;;;;;;;20.80;11.88;;;;;;;11.38;77.35;99964.13;5020323;28;20548;-74
2023/05/12 06:02:40;;;;;;;18.65;10.65;;;;;;;11.29;77.98;99978.13;5022217;28;20064;-73
2023/05/12 06:05:06;;;;;;;19.88;10.80;;;;;;;11.33;78.71;99961.50;5019923;28;20088;-73
2023/05/12 06:07:31;;;;;;;24.10;11.52;;;;;;;11.32;78.67;99968.25;5022235;28;20488;-73
2023/05/12 06:09:57;;;;;;;19.48;12.98;;;;;;;11.26;78.51;99973.19;5018357;28;20034;-73
2023/05/12 06:12:22;;;;;;;28.50;13.95;;;;;;;11.47;77.73;99967.75;5018939;28;20040;-73
2023/05/12 06:14:48;;;;;;;18.02;11.75;;;;;;;11.52;77.67;99970.41;5014472;28;20424;-73
2023/05/12 06:17:13;;;;;;;23.20;14.73;;;;;;;11.56;77.14;99973.34;5020562;28;20033;-72
2023/05/12 06:19:39;;;;;;;23.77;13.75;;;;;;;11.54;76.52;99970.06;5013646;28;20532;-71
2023/05/12 06:22:04;;;;;;;18.00;13.25;;;;;;;11.67;75.75;99973.88;5019483;28;20029;-74
2023/05/12 06:24:30;;;;;;;19.75;12.25;;;;;;;11.74;75.82;99973.38;5019114;28;20164;-73
2023/05/12 06:26:55;;;;;;;15.57;11.20;;;;;;;11.64;76.76;99978.13;5019669;28;20069;-73
2023/05/12 06:29:21;;;;;;;17.90;10.75;;;;;;;11.62;76.25;99977.66;5028833;28;20033;-74
2023/05/12 06:31:46;;;;;;;17.13;10.77;;;;;;;11.65;75.98;99979.78;5030729;28;20025;-74
2023/05/12 06:34:12;;;;;;;13.07;10.73;;;;;;;11.44;76.90;99978.78;5011754;28;20390;-72
2023/05/12 06:36:38;;;;;;;15.10;11.52;;;;;;;11.57;77.01;99982.59;5020298;28;20045;-73
2023/05/12 06:39:04;;;;;;;22.83;13.52;;;;;;;11.60;76.26;99982.75;5033706;28;20104;-74
2023/05/12 06:41:30;;;;;;;17.15;11.52;;;;;;;11.46;75.65;99976.47;5028899;28;20033;-73
2023/05/12 06:43:55;;;;;;;23.63;12.48;;;;;;;11.59;76.75;99980.28;5031400;28;20481;-73
2023/05/12 06:46:21;;;;;;;16.27;11.65;;;;;;;11.57;75.64;99971.38;5031975;28;20099;-73
2023/05/12 06:48:47;;;;;;;17.63;12.73;;;;;;;11.67;76.06;99973.88;5019220;28;20417;-72
2023/05/12 06:51:13;;;;;;;17.90;10.80;;;;;;;11.63;75.22;99976.50;5029201;28;20110;-74
2023/05/12 06:53:41;;;;;;;17.33;10.80;;;;;;;11.67;75.30;99971.06;5030803;28;20029;-72
2023/05/12 06:56:07;;;;;;;18.02;10.50;;;;;;;11.68;75.51;99983.91;5033296;28;20032;-73
2023/05/12 06:58:32;;;;;;;19.83;12.65;;;;;;;11.85;74.55;99983.09;5032604;28;20029;-72
2023/05/12 07:00:58;;;;;;;20.42;11.63;;;;;;;11.93;74.50;99979.41;5030269;28;20148;-73
2023/05/12 07:03:23;;;;;;;20.60;10.10;;;;;;;11.88;74.81;99978.78;5020839;28;20445;-73
2023/05/12 07:05:49;;;;;;;17.70;10.20;;;;;;;11.96;75.08;99977.13;5033031;28;20049;-73
2023/05/12 07:08:14;;;;;;;14.95;10.35;;;;;;;12.10;75.23;99983.41;5033491;28;20026;-73
2023/05/12 07:10:40;;;;;;;19.60;10.00;;;;;;;12.44;74.49;99989.25;5030944;28;20021;-73
2023/05/12 07:13:06;;;;;;;18.25;9.60;;;;;;;12.46;73.42;99981.31;5025257;28;20025;-73
2023/05/12 07:15:31;;;;;;;12.85;7.60;;;;;;;12.40;73.83;99975.06;5025957;28;20109;-75
2023/05/12 07:17:57;;;;;;;15.75;7.07;;;;;;;12.63;72.48;99977.63;5027404;28;20109;-72
2023/05/12 07:20:22;;;;;;;14.60;7.13;;;;;;;12.77;72.29;99972.59;5020277;28;20124;-73
2023/05/12 07:22:48;;;;;;;12.27;7.68;;;;;;;13.03;71.76;99973.63;5033103;28;20034;-74
2023/05/12 07:25:14;;;;;;;13.35;6.47;;;;;;;13.05;70.57;99977.75;5017970;28;20029;-73
2023/05/12 07:27:40;;;;;;;13.32;5.95;;;;;;;13.23;69.93;99977.63;5026352;28;20104;-76
2023/05/12 07:30:06;;;;;;;9.07;6.60;;;;;;;13.56;69.26;99962.03;5031223;28;20089;-75
2023/05/12 07:32:31;;;;;;;13.68;6.43;;;;;;;13.45;69.76;99970.91;5033052;28;20118;-75
2023/05/12 07:34:57;;;;;;;10.70;6.68;;;;;;;13.34;70.48;99972.44;5019698;28;20017;-77
2023/05/12 07:37:23;;;;;;;12.73;6.00;;;;;;;13.29;70.04;99970.66;5035691;28;20029;-76
2023/05/12 07:39:48;;;;;;;13.43;6.38;;;;;;;13.33;69.90;99970.78;5022078;28;20025;-74
2023/05/12 07:42:14;;;;;;;11.75;5.80;;;;;;;13.51;68.66;99970.69;5021964;28;20021;-75
2023/05/12 07:44:40;;;;;;;9.00;5.85;;;;;;;13.51;67.88;99974.31;5020642;28;20026;-75
2023/05/12 07:47:05;;;;;;;14.82;5.85;;;;;;;13.92;68.71;99973.81;5019592;28;20123;-75
2023/05/12 07:49:31;;;;;;;21.42;5.93;;;;;;;13.94;65.52;99972.31;5014595;28;20500;-74
2023/05/12 07:51:57;;;;;;;12.00;6.60;;;;;;;14.13;64.57;99959.69;5027147;28;20029;-78
2023/05/12 07:54:22;;;;;;;6.32;5.07;;;;;;;14.16;62.07;99973.06;5021276;28;20159;-79
2023/05/12 07:56:48;;;;;;;16.55;5.88;;;;;;;13.89;63.68;99964.91;5030735;28;20078;-78
2023/05/12 07:59:13;;;;;;;10.45;5.53;;;;;;;14.20;63.34;99968.41;5029733;28;20021;-76
2023/05/12 08:01:39;;;;;;;8.50;5.85;;;;;;;14.23;65.12;99964.88;5030667;28;20028;-75
2023/05/12 08:04:05;;;;;;;9.27;6.43;;;;;;;14.28;64.98;99972.28;5031506;28;20459;-75
2023/05/12 08:06:31;;;;;;;11.20;6.47;;;;;;;14.01;63.02;99972.56;5031115;28;20021;-74
2023/05/12 08:08:57;;;;;;;15.15;6.05;;;;;;;14.14;61.94;99970.63;5018405;28;20022;-74
2023/05/12 08:11:23;;;;;;;8.23;5.45;;;;;;;14.39;61.08;99978.28;5021358;28;20027;-75
2023/05/12 08:13:49;;;;;;;12.88;5.82;;;;;;;14.43;61.76;99977.22;5021368;28;20052;-72
2023/05/12 08:16:14;;;;;;;14.43;6.85;;;;;;;14.45;61.99;99979.72;5031462;28;20026;-74
2023/05/12 08:18:40;;;;;;;7.43;4.82;;;;;;;14.42;59.04;99971.94;5028041;28;20022;-74
2023/05/12 08:21:05;;;;;;;9.90;4.78;;;;;;;14.49;57.28;99974.22;5029320;28;20025;-78
2023/05/12 08:23:31;;;;;;;6.03;4.68;;;;;;;14.64;58.85;99970.69;5032009;28;20018;-74
2023/05/12 08:25:57;;;;;;;15.23;4.60;;;;;;;14.62;57.97;99960.97;5028499;28;20026;-73
2023/05/12 08:28:22;;;;;;;12.15;4.53;;;;;;;14.78;57.23;99973.22;5020196;28;20032;-74
2023/05/12 08:30:48;;;;;;;8.63;4.13;;;;;;;14.88;57.04;99967.09;5014891;28;20100;-75
2023/05/12 08:33:13;;;;;;;9.48;4.75;;;;;;;14.67;55.64;99972.81;5028275;28;20056;-74
2023/05/12 08:35:39;;;;;;;13.07;5.07;;;;;;;14.83;57.50;99978.59;5022621;28;20037;-76
2023/05/12 08:38:05;;;;;;;9.77;4.45;;;;;;;15.01;54.91;99973.56;5030904;28;20026;-74
2023/05/12 08:40:36;;;;;;;4.55;4.07;;;;;;;15.20;56.59;99979.75;5022402;28;20036;-72
2023/05/12 08:43:28;;;;;;;6.65;4.60;;;;;;;15.35;53.96;99964.94;5023238;28;20178;-74
2023/05/12 08:45:58;;;;;;;13.93;4.95;;;;;;;15.57;54.07;99963.59;5018895;28;20110;-75
2023/05/12 08:48:28;;;;;;;15.50;5.95;;;;;;;15.38;55.22;99966.22;5016601;28;20563;-75
2023/05/12 08:50:54;;;;;;;7.55;4.00;;;;;;;14.94;56.29;99967.69;5019809;28;20076;-72
2023/05/12 08:53:23;;;;;;;7.30;4.32;;;;;;;15.09;54.18;99970.97;5019371;28;20080;-74
2023/05/12 08:55:50;;;;;;;11.30;5.15;;;;;;;15.12;52.66;99956.97;5013648;28;20032;-75
2023/05/12 08:58:16;;;;;;;5.38;4.72;;;;;;;15.27;53.53;99955.44;5022366;28;20025;-75
2023/05/12 09:00:43;;;;;;;9.23;4.72;;;;;;;15.18;55.53;99959.56;5024603;28;20035;-74
2023/05/12 09:03:12;;;;;;;10.95;5.20;;;;;;;15.13;55.83;99958.63;5017204;28;20026;-76
2023/05/12 09:05:39;;;;;;;5.28;4.00;;;;;;;15.47;55.57;99949.16;5022286;28;20100;-73
2023/05/12 09:08:05;;;;;;;7.63;5.07;;;;;;;15.71;53.85;99951.09;5023220;28;20022;-75
2023/05/12 09:10:31;;;;;;;13.35;6.28;;;;;;;16.07;54.64;99943.69;5018003;28;20483;-77
2023/05/12 09:13:25;;;;;;;6.60;5.47;;;;;;;16.39;51.22;99942.88;5018633;28;20025;-76
2023/05/12 09:15:55;;;;;;;10.02;4.80;;;;;;;16.46;49.23;99931.75;5019905;28;20045;-78
2023/05/12 09:18:21;;;;;;;12.57;5.70;;;;;;;16.47;49.91;99935.41;5014587;28;20097;-78
2023/05/12 09:20:46;;;;;;;11.50;6.07;;;;;;;16.61;51.94;99941.44;5021341;28;21678;-76
2023/05/12 09:23:17;;;;;;;10.38;5.28;;;;;;;16.60;51.56;99941.81;5018967;28;20053;-76
2023/05/12 09:25:43;;;;;;;7.97;4.80;;;;;;;16.95;49.41;99936.19;5019213;28;20041;-75
2023/05/12 09:28:08;;;;;;;11.48;4.75;;;;;;;16.75;50.07;99938.16;5021526;28;20041;-75
2023/05/12 09:30:37;;;;;;;5.97;3.92;;;;;;;16.37;50.92;99934.78;5023376;28;20029;-74
2023/05/12 09:33:11;;;;;;;6.60;4.50;;;;;;;16.35;48.55;99934.31;5029058;28;20025;-75
2023/05/12 09:35:41;;;;;;;5.60;4.47;;;;;;;16.50;49.80;99937.50;5014105;28;20034;-79
2023/05/12 09:38:11;;;;;;;8.10;5.00;;;;;;;16.98;48.92;99929.81;5013628;28;20049;-77
2023/05/12 09:40:37;;;;;;;7.95;4.32;;;;;;;17.18;46.29;99929.91;5015158;28;20480;-78
2023/05/12 09:43:07;;;;;;;16.10;5.10;;;;;;;17.38;44.87;99935.59;5023763;28;20761;-79
2023/05/12 09:45:37;;;;;;;5.55;3.97;;;;;;;17.54;44.53;99924.19;5014558;28;20044;-74
2023/05/12 09:48:10;;;;;;;15.65;9.25;;;;;;;17.72;45.83;99937.91;5015011;28;20497;-75
2023/05/12 09:50:45;;;;;;;8.60;4.35;;;;;;;17.16;47.40;99918.16;5016870;28;20030;-76
2023/05/12 09:53:11;;;;;;;7.32;4.28;;;;;;;17.13;47.80;99927.34;5021562;28;20032;-74
2023/05/12 09:55:36;;;;;;;8.32;4.40;;;;;;;16.64;47.05;99918.09;5027385;28;20416;-76
2023/05/12 09:58:07;;;;;;;7.15;4.43;;;;;;;16.46;47.94;99925.31;5016006;28;20041;-76
2023/05/12 10:00:34;;;;;;;13.80;5.05;;;;;;;16.45;48.09;99923.69;5024903;28;20099;-75
2023/05/12 10:03:01;;;;;;;8.82;4.20;;;;;;;16.35;49.30;99902.44;5012704;28;20121;-71
2023/05/12 10:05:28;;;;;;;5.45;3.63;;;;;;;16.76;48.59;99910.72;5015489;28;20037;-73
2023/05/12 10:07:59;;;;;;;7.55;4.00;;;;;;;16.82;47.99;99912.88;5015719;28;20036;-75
2023/05/12 10:10:25;;;;;;;14.77;5.28;;;;;;;17.27;48.91;99912.72;5017873;28;20029;-79
2023/05/12 10:12:51;;;;;;;7.00;4.28;;;;;;;17.17;45.92;99925.44;5015366;28;20033;-76
2023/05/12 10:15:18;;;;;;;12.40;7.43;;;;;;;17.19;44.70;99923.06;5015506;28;20021;-80
2023/05/12 10:17:44;;;;;;;6.00;3.78;;;;;;;17.40;44.58;99924.72;5023441;28;20026;-79
2023/05/12 10:20:12;;;;;;;5.70;4.07;;;;;;;17.39;43.64;99920.25;5020458;28;20033;-84
2023/05/12 10:22:39;;;;;;;10.57;4.10;;;;;;;17.56;43.42;99915.34;5018213;28;20156;-76
2023/05/12 10:25:09;;;;;;;10.60;3.97;;;;;;;17.39;45.04;99911.78;5021127;28;20389;-75
2023/05/12 10:27:36;;;;;;;5.20;3.83;;;;;;;17.56;44.54;99907.69;5020918;28;20103;-76
2023/05/12 10:30:03;;;;;;;6.05;4.20;;;;;;;17.70;43.43;99920.50;5018308;28;20098;-76
2023/05/12 10:32:29;;;;;;;9.32;5.00;;;;;;;17.70;43.30;99918.47;5024237;28;20112;-76
2023/05/12 10:34:55;;;;;;;6.95;4.13;;;;;;;18.02;42.82;99900.47;5026134;28;20234;-76
2023/05/12 10:37:23;;;;;;;6.97;4.00;;;;;;;18.28;42.46;99899.78;5027849;28;20040;-76
2023/05/12 10:39:50;;;;;;;5.93;4.20;;;;;;;17.98;43.98;99891.13;5025944;28;20033;-76
2023/05/12 10:42:23;;;;;;;4.38;3.13;;;;;;;18.12;43.93;99899.09;5023503;28;20058;-76
2023/05/12 10:44:53;;;;;;;8.43;4.18;;;;;;;18.28;45.48;99902.63;5022935;28;20072;-76
2023/05/12 10:47:35;;;;;;;5.20;3.53;;;;;;;17.58;43.73;99904.47;5028417;28;20065;-76
2023/05/12 10:50:00;;;;;;;5.25;3.60;;;;;;;17.49;43.00;99905.50;5025219;28;20164;-76
2023/05/12 10:52:26;;;;;;;9.60;3.88;;;;;;;17.72;41.80;99898.31;5023981;28;20133;-76
2023/05/12 10:54:59;;;;;;;4.70;3.58;;;;;;;17.86;42.26;99906.22;5025452;28;20041;-76
2023/05/12 10:57:24;;;;;;;7.63;4.07;;;;;;;17.94;42.50;99885.38;5026412;28;20485;-76
2023/05/12 11:00:00;;;;;;;7.10;3.70;;;;;;;17.99;43.21;99890.75;5019876;28;20040;-76
2023/05/12 11:02:31;;;;;;;5.40;3.65;;;;;;;17.83;43.34;99905.78;5024571;28;20041;-76
2023/05/12 11:05:09;;;;;;;8.95;3.63;;;;;;;17.97;44.82;99901.59;5025912;28;20112;-76
2023/05/12 11:07:35;;;;;;;5.00;3.58;;;;;;;17.87;42.06;99900.22;5022190;28;20025;-76
2023/05/12 11:10:03;;;;;;;6.47;3.60;;;;;;;17.97;41.80;99893.09;5026955;28;20178;-76
2023/05/12 11:12:34;;;;;;;5.70;3.67;;;;;;;18.57;40.88;99890.97;5022647;28;20087;-76
2023/05/12 11:15:00;;;;;;;3.47;3.17;;;;;;;18.46;41.47;99897.25;5022216;28;20072;-76
2023/05/12 11:17:26;;;;;;;9.27;3.58;;;;;;;18.46;40.81;99891.59;5020716;28;20064;-76
2023/05/12 11:19:51;;;;;;;7.75;2.88;;;;;;;18.39;41.15;99897.13;5021464;28;20477;-76
2023/05/12 11:22:19;;;;;;;7.13;3.28;;;;;;;18.15;42.29;99892.66;5012856;28;20029;-76
2023/05/12 11:24:45;;;;;;;7.70;3.22;;;;;;;18.14;42.22;99893.88;5023639;28;20030;-76
2023/05/12 11:27:16;;;;;;;6.32;3.25;;;;;;;18.14;40.94;99896.69;5027893;28;20096;-76